createdAt,value
2024-01-12T00:06:00.544Z,-1.41
2024-01-12T00:16:10.138Z,-1.43
2024-01-12T00:26:15.473Z,-1.47
2024-01-12T00:36:18.538Z,-1.52
2024-01-12T00:46:22.297Z,-1.59
2024-01-12T00:56:24.143Z,-1.65
2024-01-12T01:06:26.147Z,-1.63
2024-01-12T01:16:28.000Z,-1.65
2024-01-12T01:26:29.777Z,-1.46
2024-01-12T01:36:34.658Z,-1.49
2024-01-12T01:46:41.650Z,-1.57
2024-01-12T01:56:43.557Z,-1.78
2024-01-12T02:06:52.912Z,-1.97
2024-01-12T02:16:55.758Z,-1.84
2024-01-12T02:26:59.911Z,-1.73
2024-01-12T02:37:01.817Z,-1.71
2024-01-12T02:47:03.664Z,-1.64
2024-01-12T02:57:05.715Z,-1.62
2024-01-12T03:07:08.821Z,-1.67
2024-01-12T03:17:13.083Z,-1.59
2024-01-12T03:27:20.736Z,-1.73
2024-01-12T03:37:22.420Z,-1.83
2024-01-12T03:47:24.180Z,-2.04
2024-01-12T03:57:30.045Z,-2.12
2024-01-12T04:07:31.767Z,-2.29
2024-01-12T04:17:34.953Z,-2.38
2024-01-12T04:27:36.644Z,-2.35
2024-01-12T04:37:48.448Z,-2.38
2024-01-12T04:47:51.143Z,-2.35
2024-01-12T04:57:53.108Z,-2.15
2024-01-12T05:07:57.309Z,-2.11
2024-01-12T05:17:59.322Z,-1.97
2024-01-12T05:28:01.617Z,-1.91
2024-01-12T05:38:04.036Z,-1.77
2024-01-12T05:48:13.596Z,-1.76
2024-01-12T05:58:21.470Z,-1.99
2024-01-12T06:08:24.866Z,-2.07
2024-01-12T06:18:26.781Z,-2.16
2024-01-12T06:28:31.020Z,-2.20
2024-01-12T06:38:33.389Z,-2.17
2024-01-12T06:48:37.975Z,-2.15
2024-01-12T06:58:42.719Z,-2.12
2024-01-12T07:08:44.686Z,-2.08
2024-01-12T07:19:00.640Z,-1.87
2024-01-12T07:29:03.486Z,-1.80
2024-01-12T07:39:05.934Z,-1.87
2024-01-12T07:49:08.522Z,-1.84
2024-01-12T07:59:12.791Z,-1.72
2024-01-12T08:09:15.954Z,0.19
2024-01-12T08:19:21.308Z,0.43
2024-01-12T08:29:23.157Z,2.35
2024-01-12T08:39:25.042Z,4.70
2024-01-12T08:49:27.211Z,4.04
2024-01-12T08:59:29.819Z,3.97
2024-01-12T09:09:33.707Z,5.02
2024-01-12T09:19:37.098Z,8.57
2024-01-12T09:29:39.373Z,6.73
2024-01-12T09:39:41.436Z,10.70
2024-01-12T09:49:46.626Z,10.82
2024-01-12T09:59:51.766Z,10.09
2024-01-12T10:09:54.333Z,5.46
2024-01-12T10:19:57.266Z,3.95
2024-01-12T10:29:59.738Z,4.19
2024-01-12T10:40:07.689Z,4.52
2024-01-12T11:00:37.080Z,3.93
2024-01-12T11:10:59.474Z,5.65
2024-01-12T11:21:03.598Z,5.21
2024-01-12T11:31:10.713Z,4.09
2024-01-12T11:41:13.715Z,4.20
2024-01-12T11:51:26.162Z,2.59
2024-01-12T12:01:29.911Z,2.81
2024-01-12T12:11:31.986Z,2.48
2024-01-12T12:21:33.935Z,2.94
2024-01-12T12:31:41.725Z,3.46
2024-01-12T12:41:45.225Z,2.83
2024-01-12T12:51:47.615Z,3.31
2024-01-12T13:01:51.586Z,4.10
2024-01-12T13:11:55.102Z,4.14
2024-01-12T13:21:57.011Z,3.72
2024-01-12T13:31:58.694Z,2.94
2024-01-12T13:42:06.036Z,3.22
2024-01-12T13:52:09.878Z,3.79
2024-01-12T14:02:22.650Z,3.34
2024-01-12T14:12:24.880Z,3.35
2024-01-12T14:22:29.745Z,3.11
2024-01-12T14:32:34.053Z,2.55
2024-01-12T14:42:37.133Z,2.14
2024-01-12T14:52:40.022Z,1.87
2024-01-12T15:02:46.099Z,1.72
2024-01-12T15:12:48.128Z,1.63
2024-01-12T15:22:49.810Z,1.49
2024-01-12T15:32:53.062Z,1.13
2024-01-12T15:43:03.625Z,0.89
2024-01-12T15:53:05.701Z,0.71
2024-01-12T16:03:07.635Z,0.61
2024-01-12T16:13:09.455Z,0.47
2024-01-12T16:23:12.579Z,0.36
2024-01-12T16:33:14.769Z,0.30
2024-01-12T16:43:18.517Z,0.22
2024-01-12T16:53:22.107Z,0.23
2024-01-12T17:03:25.455Z,0.20
2024-01-12T17:13:27.164Z,0.01
2024-01-12T17:23:29.191Z,-0.08
2024-01-12T17:33:33.169Z,-0.17
2024-01-12T17:43:35.927Z,-0.26
2024-01-12T17:53:37.860Z,-0.38
2024-01-12T18:03:39.512Z,-0.27
2024-01-12T18:13:41.612Z,-0.38
2024-01-12T18:23:44.354Z,-0.50
2024-01-12T18:33:47.045Z,-0.62
2024-01-12T18:43:50.024Z,-0.56
2024-01-12T18:53:51.937Z,-0.60
2024-01-12T19:03:54.234Z,-0.72
2024-01-12T19:13:57.425Z,-0.89
2024-01-12T19:24:00.250Z,-0.93
2024-01-12T19:34:03.284Z,-0.88
2024-01-12T19:44:05.416Z,-0.97
2024-01-12T19:54:07.644Z,-1.04
2024-01-12T20:04:09.952Z,-1.05
2024-01-12T20:14:11.894Z,-1.09
2024-01-12T20:24:13.699Z,-1.09
2024-01-12T20:34:15.727Z,-1.15
2024-01-12T20:44:17.592Z,-1.18
2024-01-12T20:54:22.354Z,-1.27
2024-01-12T21:04:24.168Z,-1.36
2024-01-12T21:14:29.561Z,-1.45
2024-01-12T21:24:32.452Z,-1.56
2024-01-12T21:34:38.440Z,-1.56
2024-01-12T21:44:40.306Z,-1.71
2024-01-12T21:54:43.089Z,-1.62
2024-01-12T22:04:44.839Z,-1.68
2024-01-12T22:14:47.555Z,-1.65
2024-01-12T22:24:49.380Z,-1.59
2024-01-12T22:34:51.139Z,-1.66
2024-01-12T22:44:53.434Z,-1.71
2024-01-12T22:54:55.687Z,-1.72
2024-01-12T23:04:59.907Z,-1.77
2024-01-12T23:15:02.011Z,-1.83
2024-01-12T23:25:06.539Z,-1.97
2024-01-12T23:35:08.687Z,-2.00
2024-01-12T23:45:10.651Z,-2.00
2024-01-12T23:55:12.476Z,-1.85
